sensor_id;sensor_type;location;lat;lon;timestamp;pressure;altitude;pressure_sealevel;temperature;humidity
81224;BME280;70698;44.402;18.522;2024-03-08T00:00:15;97676.06;;;4.58;100.00
81224;BME280;70698;44.402;18.522;2024-03-08T00:02:47;97682.44;;;4.54;100.00
81224;BME280;70698;44.402;18.522;2024-03-08T00:05:14;97674.72;;;4.33;100.00
81224;BME280;70698;44.402;18.522;2024-03-08T00:07:40;97675.63;;;4.22;100.00
81224;BME280;70698;44.402;18.522;2024-03-08T00:10:08;97668.22;;;4.18;100.00
81224;BME280;70698;44.402;18.522;2024-03-08T00:12:41;97672.38;;;4.30;100.00
81224;BME280;70698;44.402;18.522;2024-03-08T00:15:10;97667.56;;;4.25;100.00
81224;BME280;70698;44.402;18.522;2024-03-08T00:17:39;97665.22;;;4.22;100.00
81224;BME280;70698;44.402;18.522;2024-03-08T00:20:06;97662.88;;;4.19;100.00
81224;BME280;70698;44.402;18.522;2024-03-08T00:22:37;97672.13;;;4.33;100.00
81224;BME280;70698;44.402;18.522;2024-03-08T00:25:07;97681.38;;;4.56;100.00
81224;BME280;70698;44.402;18.522;2024-03-08T00:27:36;97663.56;;;4.52;100.00
81224;BME280;70698;44.402;18.522;2024-03-08T00:30:02;97678.66;;;4.58;100.00
81224;BME280;70698;44.402;18.522;2024-03-08T00:32:28;97675.47;;;4.54;100.00
81224;BME280;70698;44.402;18.522;2024-03-08T00:34:54;97678.25;;;4.62;100.00
81224;BME280;70698;44.402;18.522;2024-03-08T00:37:23;97671.00;;;4.66;100.00
81224;BME280;70698;44.402;18.522;2024-03-08T00:39:49;97672.75;;;4.56;100.00
81224;BME280;70698;44.402;18.522;2024-03-08T00:42:19;97686.84;;;4.53;100.00
81224;BME280;70698;44.402;18.522;2024-03-08T00:44:45;97670.66;;;4.50;100.00
81224;BME280;70698;44.402;18.522;2024-03-08T00:47:11;97681.78;;;4.52;100.00
81224;BME280;70698;44.402;18.522;2024-03-08T00:49:37;97672.66;;;4.67;100.00
81224;BME280;70698;44.402;18.522;2024-03-08T00:52:06;97675.09;;;4.68;100.00
81224;BME280;70698;44.402;18.522;2024-03-08T00:54:32;97675.25;;;4.67;100.00
81224;BME280;70698;44.402;18.522;2024-03-08T00:56:58;97672.34;;;4.60;100.00
81224;BME280;70698;44.402;18.522;2024-03-08T00:59:25;97670.69;;;4.59;100.00
81224;BME280;70698;44.402;18.522;2024-03-08T01:01:50;97670.16;;;4.65;100.00
81224;BME280;70698;44.402;18.522;2024-03-08T01:04:16;97673.19;;;4.70;100.00
81224;BME280;70698;44.402;18.522;2024-03-08T01:06:42;97674.13;;;4.60;100.00
81224;BME280;70698;44.402;18.522;2024-03-08T01:09:11;97673.28;;;4.59;100.00
81224;BME280;70698;44.402;18.522;2024-03-08T01:11:37;97661.38;;;4.57;100.00
81224;BME280;70698;44.402;18.522;2024-03-08T01:14:03;97669.63;;;4.62;100.00
81224;BME280;70698;44.402;18.522;2024-03-08T01:16:29;97667.44;;;4.67;100.00
81224;BME280;70698;44.402;18.522;2024-03-08T01:18:54;97675.25;;;4.67;100.00
81224;BME280;70698;44.402;18.522;2024-03-08T01:21:20;97660.31;;;4.69;100.00
81224;BME280;70698;44.402;18.522;2024-03-08T01:23:46;97672.06;;;4.63;100.00
81224;BME280;70698;44.402;18.522;2024-03-08T01:26:12;97669.47;;;4.63;100.00
81224;BME280;70698;44.402;18.522;2024-03-08T01:28:37;97667.00;;;4.62;100.00
81224;BME280;70698;44.402;18.522;2024-03-08T01:31:03;97657.41;;;4.53;100.00
81224;BME280;70698;44.402;18.522;2024-03-08T01:33:29;97664.63;;;4.49;100.00
81224;BME280;70698;44.402;18.522;2024-03-08T01:35:55;97667.94;;;4.51;100.00
81224;BME280;70698;44.402;18.522;2024-03-08T01:38:22;97667.94;;;4.51;100.00
81224;BME280;70698;44.402;18.522;2024-03-08T01:40:48;97666.03;;;4.53;100.00
81224;BME280;70698;44.402;18.522;2024-03-08T01:43:35;97669.88;;;4.59;100.00
81224;BME280;70698;44.402;18.522;2024-03-08T01:46:01;97662.72;;;4.51;100.00
81224;BME280;70698;44.402;18.522;2024-03-08T01:48:28;97657.94;;;4.56;100.00
81224;BME280;70698;44.402;18.522;2024-03-08T01:50:55;97663.44;;;4.53;100.00
81224;BME280;70698;44.402;18.522;2024-03-08T01:53:22;97651.63;;;4.49;100.00
81224;BME280;70698;44.402;18.522;2024-03-08T01:55:48;97651.38;;;4.52;100.00
81224;BME280;70698;44.402;18.522;2024-03-08T01:58:15;97646.84;;;4.54;100.00
81224;BME280;70698;44.402;18.522;2024-03-08T02:00:43;97642.97;;;4.49;100.00
81224;BME280;70698;44.402;18.522;2024-03-08T02:03:09;97657.94;;;4.56;100.00
81224;BME280;70698;44.402;18.522;2024-03-08T02:05:40;97647.63;;;4.45;100.00
81224;BME280;70698;44.402;18.522;2024-03-08T02:08:08;97658.06;;;4.55;100.00
81224;BME280;70698;44.402;18.522;2024-03-08T02:10:38;97657.25;;;4.54;100.00
81224;BME280;70698;44.402;18.522;2024-03-08T02:13:04;97657.25;;;4.54;100.00
81224;BME280;70698;44.402;18.522;2024-03-08T02:15:59;97654.66;;;4.64;100.00
81224;BME280;70698;44.402;18.522;2024-03-08T02:18:25;97660.97;;;4.61;100.00
81224;BME280;70698;44.402;18.522;2024-03-08T02:20:52;97657.13;;;4.56;100.00
81224;BME280;70698;44.402;18.522;2024-03-08T02:23:21;97659.72;;;4.56;100.00
81224;BME280;70698;44.402;18.522;2024-03-08T02:25:48;97647.63;;;4.45;100.00
81224;BME280;70698;44.402;18.522;2024-03-08T02:28:14;97666.03;;;4.53;100.00
81224;BME280;70698;44.402;18.522;2024-03-08T02:30:40;97653.69;;;4.55;100.00
81224;BME280;70698;44.402;18.522;2024-03-08T02:33:07;97652.03;;;4.54;100.00
81224;BME280;70698;44.402;18.522;2024-03-08T02:35:35;97641.19;;;4.49;100.00
81224;BME280;70698;44.402;18.522;2024-03-08T02:38:01;97646.03;;;4.63;100.00
81224;BME280;70698;44.402;18.522;2024-03-08T02:40:29;97651.13;;;4.65;100.00
81224;BME280;70698;44.402;18.522;2024-03-08T02:42:54;97644.94;;;4.56;100.00
81224;BME280;70698;44.402;18.522;2024-03-08T02:45:20;97647.53;;;4.56;100.00
81224;BME280;70698;44.402;18.522;2024-03-08T02:47:46;97641.09;;;4.51;100.00
81224;BME280;70698;44.402;18.522;2024-03-08T02:50:11;97636.44;;;4.54;100.00
81224;BME280;70698;44.402;18.522;2024-03-08T02:52:44;97647.56;;;4.66;100.00
81224;BME280;70698;44.402;18.522;2024-03-08T02:55:11;97652.34;;;4.61;100.00
81224;BME280;70698;44.402;18.522;2024-03-08T02:57:40;97642.78;;;4.31;100.00
81224;BME280;70698;44.402;18.522;2024-03-08T03:00:07;97638.50;;;4.20;100.00
81224;BME280;70698;44.402;18.522;2024-03-08T03:02:34;97650.13;;;4.16;100.00
81224;BME280;70698;44.402;18.522;2024-03-08T03:05:00;97643.94;;;4.08;100.00
81224;BME280;70698;44.402;18.522;2024-03-08T03:07:31;97651.59;;;4.09;100.00
81224;BME280;70698;44.402;18.522;2024-03-08T03:09:56;97650.53;;;4.12;100.00
81224;BME280;70698;44.402;18.522;2024-03-08T03:12:22;97651.19;;;4.14;100.00
81224;BME280;70698;44.402;18.522;2024-03-08T03:14:48;97657.94;;;4.16;100.00
81224;BME280;70698;44.402;18.522;2024-03-08T03:17:13;97657.22;;;4.14;100.00
81224;BME280;70698;44.402;18.522;2024-03-08T03:19:42;97655.22;;;4.18;100.00
81224;BME280;70698;44.402;18.522;2024-03-08T03:22:08;97659.97;;;4.13;100.00
81224;BME280;70698;44.402;18.522;2024-03-08T03:24:36;97664.47;;;4.11;100.00
81224;BME280;70698;44.402;18.522;2024-03-08T03:27:06;97657.09;;;4.16;100.00
81224;BME280;70698;44.402;18.522;2024-03-08T03:29:43;97659.84;;;4.14;100.00
81224;BME280;70698;44.402;18.522;2024-03-08T03:32:12;97664.47;;;4.11;100.00
81224;BME280;70698;44.402;18.522;2024-03-08T03:34:39;97662.44;;;4.14;100.00
81224;BME280;70698;44.402;18.522;2024-03-08T03:37:05;97663.91;;;4.07;100.00
81224;BME280;70698;44.402;18.522;2024-03-08T03:39:32;97661.47;;;4.15;100.00
81224;BME280;70698;44.402;18.522;2024-03-08T03:42:00;97650.53;;;4.12;100.00
81224;BME280;70698;44.402;18.522;2024-03-08T03:44:30;97666.44;;;4.18;100.00
81224;BME280;70698;44.402;18.522;2024-03-08T03:46:56;97656.25;;;4.06;100.00
81224;BME280;70698;44.402;18.522;2024-03-08T03:49:21;97668.28;;;4.07;100.00
81224;BME280;70698;44.402;18.522;2024-03-08T03:51:47;97664.88;;;4.06;100.00
81224;BME280;70698;44.402;18.522;2024-03-08T03:54:13;97662.66;;;4.02;100.00
81224;BME280;70698;44.402;18.522;2024-03-08T03:56:39;97661.94;;;4.00;100.00
81224;BME280;70698;44.402;18.522;2024-03-08T03:59:07;97658.53;;;3.99;100.00
81224;BME280;70698;44.402;18.522;2024-03-08T04:01:33;97654.66;;;3.94;100.00
81224;BME280;70698;44.402;18.522;2024-03-08T04:03:59;97662.59;;;3.92;100.00
81224;BME280;70698;44.402;18.522;2024-03-08T04:06:25;97660.56;;;3.96;100.00
81224;BME280;70698;44.402;18.522;2024-03-08T04:08:50;97657.44;;;4.02;100.00
81224;BME280;70698;44.402;18.522;2024-03-08T04:11:16;97653.47;;;3.98;100.00
81224;BME280;70698;44.402;18.522;2024-03-08T04:13:43;97646.50;;;3.98;100.00
81224;BME280;70698;44.402;18.522;2024-03-08T04:16:08;97641.53;;;3.95;100.00
81224;BME280;70698;44.402;18.522;2024-03-08T04:18:36;97652.38;;;4.00;100.00
81224;BME280;70698;44.402;18.522;2024-03-08T04:21:04;97644.97;;;3.96;100.00
81224;BME280;70698;44.402;18.522;2024-03-08T04:23:33;97656.06;;;3.98;100.00
81224;BME280;70698;44.402;18.522;2024-03-08T04:26:02;97636.03;;;3.88;100.00
81224;BME280;70698;44.402;18.522;2024-03-08T04:28:28;97658.09;;;3.94;100.00
81224;BME280;70698;44.402;18.522;2024-03-08T04:30:54;97657.78;;;3.87;100.00
81224;BME280;70698;44.402;18.522;2024-03-08T04:33:20;97661.91;;;3.90;100.00
81224;BME280;70698;44.402;18.522;2024-03-08T04:35:47;97664.09;;;3.95;100.00
81224;BME280;70698;44.402;18.522;2024-03-08T04:38:12;97654.91;;;3.90;100.00
81224;BME280;70698;44.402;18.522;2024-03-08T04:40:38;97668.28;;;4.07;100.00
81224;BME280;70698;44.402;18.522;2024-03-08T04:43:04;97667.59;;;4.05;100.00
81224;BME280;70698;44.402;18.522;2024-03-08T04:45:30;97664.69;;;3.98;100.00
81224;BME280;70698;44.402;18.522;2024-03-08T04:47:56;97670.78;;;4.08;100.00
81224;BME280;70698;44.402;18.522;2024-03-08T04:50:22;97672.41;;;4.09;100.00
81224;BME280;70698;44.402;18.522;2024-03-08T04:52:47;97669.72;;;4.20;100.00
81224;BME280;70698;44.402;18.522;2024-03-08T04:55:14;97666.50;;;4.28;100.00
81224;BME280;70698;44.402;18.522;2024-03-08T04:57:39;97667.25;;;4.19;100.00
81224;BME280;70698;44.402;18.522;2024-03-08T05:00:05;97668.91;;;4.20;100.00
81224;BME280;70698;44.402;18.522;2024-03-08T05:02:37;97671.22;;;4.13;100.00
81224;BME280;70698;44.402;18.522;2024-03-08T05:05:07;97668.19;;;4.08;100.00
81224;BME280;70698;44.402;18.522;2024-03-08T05:07:40;97665.25;;;4.02;100.00
81224;BME280;70698;44.402;18.522;2024-03-08T05:10:06;97666.63;;;4.06;100.00
81224;BME280;70698;44.402;18.522;2024-03-08T05:12:33;97675.38;;;4.05;100.00
81224;BME280;70698;44.402;18.522;2024-03-08T05:14:59;97671.41;;;4.01;100.00
81224;BME280;70698;44.402;18.522;2024-03-08T05:17:25;97675.16;;;4.08;100.00
81224;BME280;70698;44.402;18.522;2024-03-08T05:19:51;97677.75;;;4.08;100.00
81224;BME280;70698;44.402;18.522;2024-03-08T05:22:17;97669.34;;;4.04;100.00
81224;BME280;70698;44.402;18.522;2024-03-08T05:24:44;97677.88;;;4.06;100.00
81224;BME280;70698;44.402;18.522;2024-03-08T05:27:10;97674.84;;;4.01;100.00
81224;BME280;70698;44.402;18.522;2024-03-08T05:29:36;97676.59;;;4.01;100.00
81224;BME280;70698;44.402;18.522;2024-03-08T05:32:03;97679.19;;;4.01;100.00
81224;BME280;70698;44.402;18.522;2024-03-08T05:34:29;97684.53;;;3.99;100.00
81224;BME280;70698;44.402;18.522;2024-03-08T05:36:55;97678.75;;;3.96;100.00
81224;BME280;70698;44.402;18.522;2024-03-08T05:39:21;97686.06;;;4.02;100.00
81224;BME280;70698;44.402;18.522;2024-03-08T05:41:47;97685.50;;;3.98;100.00
81224;BME280;70698;44.402;18.522;2024-03-08T05:44:13;97677.56;;;4.00;100.00
81224;BME280;70698;44.402;18.522;2024-03-08T05:46:39;97696.91;;;4.07;100.00
81224;BME280;70698;44.402;18.522;2024-03-08T05:49:08;97685.78;;;4.05;100.00
81224;BME280;70698;44.402;18.522;2024-03-08T05:51:37;97690.16;;;4.04;100.00
81224;BME280;70698;44.402;18.522;2024-03-08T05:54:08;97691.50;;;3.99;100.00
81224;BME280;70698;44.402;18.522;2024-03-08T05:56:37;97687.28;;;3.98;100.00
81224;BME280;70698;44.402;18.522;2024-03-08T05:59:03;97697.41;;;4.01;100.00
81224;BME280;70698;44.402;18.522;2024-03-08T06:01:29;97693.41;;;3.97;100.00
81224;BME280;70698;44.402;18.522;2024-03-08T06:03:56;97694.81;;;4.01;100.00
81224;BME280;70698;44.402;18.522;2024-03-08T06:06:25;97697.84;;;4.06;100.00
81224;BME280;70698;44.402;18.522;2024-03-08T06:08:51;97694.84;;;4.10;100.00
81224;BME280;70698;44.402;18.522;2024-03-08T06:11:18;97692.25;;;4.10;100.00
81224;BME280;70698;44.402;18.522;2024-03-08T06:13:48;97688.00;;;4.09;100.00
81224;BME280;70698;44.402;18.522;2024-03-08T06:16:14;97696.84;;;4.18;100.00
81224;BME280;70698;44.402;18.522;2024-03-08T06:18:40;97693.78;;;4.13;100.00
81224;BME280;70698;44.402;18.522;2024-03-08T06:21:07;97696.69;;;4.19;100.00
81224;BME280;70698;44.402;18.522;2024-03-08T06:23:35;97694.91;;;4.20;100.00
81224;BME280;70698;44.402;18.522;2024-03-08T06:26:09;97692.03;;;4.13;100.00
81224;BME280;70698;44.402;18.522;2024-03-08T06:28:35;97707.69;;;4.23;100.00
81224;BME280;70698;44.402;18.522;2024-03-08T06:31:01;97707.53;;;4.24;100.00
81224;BME280;70698;44.402;18.522;2024-03-08T06:33:28;97708.66;;;4.31;100.00
81224;BME280;70698;44.402;18.522;2024-03-08T06:35:56;97706.75;;;4.33;100.00
81224;BME280;70698;44.402;18.522;2024-03-08T06:38:26;97702.75;;;4.29;100.00
81224;BME280;70698;44.402;18.522;2024-03-08T06:40:52;97696.88;;;4.27;100.00
81224;BME280;70698;44.402;18.522;2024-03-08T06:43:18;97708.91;;;4.28;100.00
81224;BME280;70698;44.402;18.522;2024-03-08T06:45:44;97718.53;;;4.28;100.00
81224;BME280;70698;44.402;18.522;2024-03-08T06:48:15;97716.97;;;4.25;100.00
81224;BME280;70698;44.402;18.522;2024-03-08T06:50:42;97711.81;;;4.35;100.00
81224;BME280;70698;44.402;18.522;2024-03-08T06:53:08;97705.94;;;4.33;100.00
81224;BME280;70698;44.402;18.522;2024-03-08T06:55:33;97708.19;;;4.47;100.00
81224;BME280;70698;44.402;18.522;2024-03-08T06:58:01;97704.06;;;4.45;100.00
81224;BME280;70698;44.402;18.522;2024-03-08T07:00:26;97710.66;;;4.49;100.00
81224;BME280;70698;44.402;18.522;2024-03-08T07:02:54;97718.88;;;4.54;100.00
81224;BME280;70698;44.402;18.522;2024-03-08T07:05:20;97713.00;;;4.52;100.00
81224;BME280;70698;44.402;18.522;2024-03-08T07:07:46;97711.22;;;4.52;100.00
81224;BME280;70698;44.402;18.522;2024-03-08T07:10:14;97713.84;;;4.52;100.00
81224;BME280;70698;44.402;18.522;2024-03-08T07:12:41;97714.00;;;4.60;100.00
81224;BME280;70698;44.402;18.522;2024-03-08T07:15:08;97720.56;;;4.64;100.00
81224;BME280;70698;44.402;18.522;2024-03-08T07:17:39;97717.69;;;4.58;100.00
81224;BME280;70698;44.402;18.522;2024-03-08T07:20:06;97722.22;;;4.65;100.00
81224;BME280;70698;44.402;18.522;2024-03-08T07:22:37;97723.88;;;4.66;100.00
81224;BME280;70698;44.402;18.522;2024-03-08T07:25:05;97716.59;;;4.60;100.00
81224;BME280;70698;44.402;18.522;2024-03-08T07:27:50;97714.28;;;4.57;100.00
81224;BME280;70698;44.402;18.522;2024-03-08T07:30:17;97721.81;;;4.60;100.00
81224;BME280;70698;44.402;18.522;2024-03-08T07:33:03;97721.59;;;4.73;100.00
81224;BME280;70698;44.402;18.522;2024-03-08T07:35:29;97718.28;;;4.71;100.00
81224;BME280;70698;44.402;18.522;2024-03-08T07:37:56;97717.31;;;4.62;100.00
81224;BME280;70698;44.402;18.522;2024-03-08T07:40:22;97716.88;;;4.57;100.00
81224;BME280;70698;44.402;18.522;2024-03-08T07:42:51;97721.53;;;4.63;100.00
81224;BME280;70698;44.402;18.522;2024-03-08T07:45:17;97725.53;;;4.67;100.00
81224;BME280;70698;44.402;18.522;2024-03-08T07:47:43;97710.97;;;4.55;100.00
81224;BME280;70698;44.402;18.522;2024-03-08T07:50:08;97718.16;;;4.72;100.00
81224;BME280;70698;44.402;18.522;2024-03-08T07:52:35;97726.41;;;4.78;100.00
81224;BME280;70698;44.402;18.522;2024-03-08T07:55:02;97721.16;;;4.68;100.00
81224;BME280;70698;44.402;18.522;2024-03-08T07:57:31;97730.34;;;4.72;100.00
81224;BME280;70698;44.402;18.522;2024-03-08T07:59:57;97719.00;;;4.73;100.00
81224;BME280;70698;44.402;18.522;2024-03-08T08:02:23;97729.94;;;4.76;100.00
81224;BME280;70698;44.402;18.522;2024-03-08T08:04:49;97724.47;;;4.80;100.00
81224;BME280;70698;44.402;18.522;2024-03-08T08:07:14;97733.00;;;4.82;100.00
81224;BME280;70698;44.402;18.522;2024-03-08T08:09:41;97727.50;;;4.85;100.00
81224;BME280;70698;44.402;18.522;2024-03-08T08:12:08;97728.44;;;4.84;100.00
81224;BME280;70698;44.402;18.522;2024-03-08T08:14:39;97728.44;;;4.84;100.00
81224;BME280;70698;44.402;18.522;2024-03-08T08:17:06;97737.66;;;4.88;100.00
81224;BME280;70698;44.402;18.522;2024-03-08T08:19:34;97725.72;;;4.85;100.00
81224;BME280;70698;44.402;18.522;2024-03-08T08:22:04;97733.84;;;4.92;100.00
81224;BME280;70698;44.402;18.522;2024-03-08T08:24:29;97740.31;;;4.97;100.00
81224;BME280;70698;44.402;18.522;2024-03-08T08:26:55;97732.34;;;4.99;100.00
81224;BME280;70698;44.402;18.522;2024-03-08T08:29:21;97748.38;;;5.04;100.00
81224;BME280;70698;44.402;18.522;2024-03-08T08:31:48;97741.13;;;4.98;100.00
81224;BME280;70698;44.402;18.522;2024-03-08T08:34:18;97748.69;;;5.10;100.00
81224;BME280;70698;44.402;18.522;2024-03-08T08:36:45;97741.28;;;5.06;100.00
81224;BME280;70698;44.402;18.522;2024-03-08T08:39:10;97735.78;;;5.09;100.00
81224;BME280;70698;44.402;18.522;2024-03-08T08:41:39;97736.22;;;5.14;100.00
81224;BME280;70698;44.402;18.522;2024-03-08T08:44:07;97733.59;;;5.04;100.00
81224;BME280;70698;44.402;18.522;2024-03-08T08:46:38;97737.34;;;5.21;100.00
81224;BME280;70698;44.402;18.522;2024-03-08T08:49:05;97747.03;;;5.09;100.00
81224;BME280;70698;44.402;18.522;2024-03-08T08:51:32;97745.69;;;5.15;100.00
81224;BME280;70698;44.402;18.522;2024-03-08T08:53:59;97745.13;;;5.11;100.00
81224;BME280;70698;44.402;18.522;2024-03-08T08:56:25;97748.28;;;5.15;100.00
81224;BME280;70698;44.402;18.522;2024-03-08T08:58:52;97741.41;;;5.14;100.00
81224;BME280;70698;44.402;18.522;2024-03-08T09:01:19;97733.06;;;5.20;100.00
81224;BME280;70698;44.402;18.522;2024-03-08T09:03:45;97741.28;;;5.15;100.00
81224;BME280;70698;44.402;18.522;2024-03-08T09:06:12;97734.97;;;5.08;100.00
81224;BME280;70698;44.402;18.522;2024-03-08T09:08:42;97742.13;;;5.16;100.00
81224;BME280;70698;44.402;18.522;2024-03-08T09:11:07;97740.22;;;5.18;100.00
81224;BME280;70698;44.402;18.522;2024-03-08T09:13:33;97736.63;;;5.19;100.00
81224;BME280;70698;44.402;18.522;2024-03-08T09:16:02;97734.03;;;5.19;100.00
81224;BME280;70698;44.402;18.522;2024-03-08T09:18:30;97727.63;;;5.33;100.00
81224;BME280;70698;44.402;18.522;2024-03-08T09:20:58;97731.44;;;5.19;100.00
81224;BME280;70698;44.402;18.522;2024-03-08T09:23:23;97728.41;;;5.33;100.00
81224;BME280;70698;44.402;18.522;2024-03-08T09:25:51;97725.03;;;5.33;100.00
81224;BME280;70698;44.402;18.522;2024-03-08T09:28:17;97737.63;;;5.37;100.00
81224;BME280;70698;44.402;18.522;2024-03-08T09:30:42;97735.72;;;5.39;100.00
81224;BME280;70698;44.402;18.522;2024-03-08T09:33:09;97734.34;;;5.45;100.00
81224;BME280;70698;44.402;18.522;2024-03-08T09:35:35;97738.91;;;5.52;100.00
81224;BME280;70698;44.402;18.522;2024-03-08T09:38:01;97729.81;;;5.37;100.00
81224;BME280;70698;44.402;18.522;2024-03-08T09:40:26;97723.63;;;5.38;100.00
81224;BME280;70698;44.402;18.522;2024-03-08T09:42:52;97729.41;;;5.61;100.00
81224;BME280;70698;44.402;18.522;2024-03-08T09:45:20;97726.94;;;5.69;100.00
81224;BME280;70698;44.402;18.522;2024-03-08T09:47:50;97737.94;;;5.82;100.00
81224;BME280;70698;44.402;18.522;2024-03-08T09:50:16;97721.31;;;5.74;100.00
81224;BME280;70698;44.402;18.522;2024-03-08T09:52:44;97725.03;;;6.00;100.00
81224;BME280;70698;44.402;18.522;2024-03-08T09:55:11;97730.94;;;6.12;100.00
81224;BME280;70698;44.402;18.522;2024-03-08T09:57:38;97731.03;;;6.20;100.00
81224;BME280;70698;44.402;18.522;2024-03-08T10:00:04;97732.44;;;6.04;100.00
81224;BME280;70698;44.402;18.522;2024-03-08T10:02:50;97720.38;;;5.94;100.00
81224;BME280;70698;44.402;18.522;2024-03-08T10:05:17;97740.53;;;6.11;100.00
81224;BME280;70698;44.402;18.522;2024-03-08T10:07:44;97727.19;;;6.14;100.00
81224;BME280;70698;44.402;18.522;2024-03-08T10:10:09;97723.72;;;6.23;100.00
81224;BME280;70698;44.402;18.522;2024-03-08T10:12:38;97714.94;;;6.24;100.00
81224;BME280;70698;44.402;18.522;2024-03-08T10:15:08;97716.31;;;6.28;100.00
81224;BME280;70698;44.402;18.522;2024-03-08T10:17:36;97707.00;;;6.26;100.00
81224;BME280;70698;44.402;18.522;2024-03-08T10:20:02;97708.97;;;6.51;100.00
81224;BME280;70698;44.402;18.522;2024-03-08T10:22:30;97717.94;;;6.76;100.00
81224;BME280;70698;44.402;18.522;2024-03-08T10:24:57;97711.66;;;7.14;100.00
81224;BME280;70698;44.402;18.522;2024-03-08T10:27:23;97716.94;;;7.49;100.00
81224;BME280;70698;44.402;18.522;2024-03-08T10:29:48;97719.94;;;7.72;99.37
81224;BME280;70698;44.402;18.522;2024-03-08T10:32:16;97723.38;;;7.55;98.43
81224;BME280;70698;44.402;18.522;2024-03-08T10:34:42;97725.25;;;7.17;100.00
81224;BME280;70698;44.402;18.522;2024-03-08T10:37:12;97729.56;;;6.91;100.00
81224;BME280;70698;44.402;18.522;2024-03-08T10:39:49;97729.75;;;6.80;100.00
81224;BME280;70698;44.402;18.522;2024-03-08T10:42:26;97724.97;;;6.93;99.30
81224;BME280;70698;44.402;18.522;2024-03-08T10:45:05;97717.91;;;7.03;100.00
81224;BME280;70698;44.402;18.522;2024-03-08T10:47:33;97712.56;;;7.22;100.00
81224;BME280;70698;44.402;18.522;2024-03-08T10:50:11;97716.69;;;7.78;99.88
81224;BME280;70698;44.402;18.522;2024-03-08T10:52:43;97720.47;;;7.75;93.91
81224;BME280;70698;44.402;18.522;2024-03-08T10:55:09;97720.41;;;8.11;92.88
81224;BME280;70698;44.402;18.522;2024-03-08T10:57:38;97716.94;;;8.54;92.44
81224;BME280;70698;44.402;18.522;2024-03-08T11:00:07;97717.50;;;8.66;89.45
81224;BME280;70698;44.402;18.522;2024-03-08T11:02:36;97709.44;;;8.59;89.64
81224;BME280;70698;44.402;18.522;2024-03-08T11:05:03;97700.38;;;8.28;95.61
81224;BME280;70698;44.402;18.522;2024-03-08T11:07:33;97706.75;;;7.99;96.86
81224;BME280;70698;44.402;18.522;2024-03-08T11:10:03;97706.22;;;7.96;94.67
81224;BME280;70698;44.402;18.522;2024-03-08T11:12:39;97704.63;;;8.03;95.74
81224;BME280;70698;44.402;18.522;2024-03-08T11:15:11;97716.16;;;7.92;92.49
81224;BME280;70698;44.402;18.522;2024-03-08T11:20:15;97702.34;;;7.82;95.57
81224;BME280;70698;44.402;18.522;2024-03-08T11:22:42;97708.34;;;7.74;88.36
81224;BME280;70698;44.402;18.522;2024-03-08T11:25:31;97704.25;;;7.98;91.19
81224;BME280;70698;44.402;18.522;2024-03-08T11:30:33;97698.03;;;7.55;94.42
81224;BME280;70698;44.402;18.522;2024-03-08T11:33:00;97702.75;;;7.52;94.61
81224;BME280;70698;44.402;18.522;2024-03-08T11:35:28;97701.38;;;7.48;94.73
81224;BME280;70698;44.402;18.522;2024-03-08T11:37:54;97678.91;;;7.98;94.03
81224;BME280;70698;44.402;18.522;2024-03-08T11:40:20;97689.03;;;7.93;92.75
81224;BME280;70698;44.402;18.522;2024-03-08T11:42:47;97697.59;;;8.03;94.58
81224;BME280;70698;44.402;18.522;2024-03-08T11:45:16;97695.22;;;7.92;95.44
81224;BME280;70698;44.402;18.522;2024-03-08T11:47:45;97683.59;;;7.87;93.63
81224;BME280;70698;44.402;18.522;2024-03-08T11:50:13;97686.38;;;8.11;94.60
81224;BME280;70698;44.402;18.522;2024-03-08T11:52:39;97680.13;;;8.30;89.74
81224;BME280;70698;44.402;18.522;2024-03-08T11:55:05;97684.66;;;8.45;88.68
81224;BME280;70698;44.402;18.522;2024-03-08T11:57:31;97678.47;;;8.54;89.30
81224;BME280;70698;44.402;18.522;2024-03-08T11:59:58;97671.31;;;8.13;90.31
81224;BME280;70698;44.402;18.522;2024-03-08T12:02:34;97682.22;;;8.26;91.37
81224;BME280;70698;44.402;18.522;2024-03-08T12:05:04;97673.69;;;8.24;91.67
81224;BME280;70698;44.402;18.522;2024-03-08T12:07:31;97673.84;;;8.22;93.49
81224;BME280;70698;44.402;18.522;2024-03-08T12:10:21;97668.78;;;8.21;93.61
81224;BME280;70698;44.402;18.522;2024-03-08T12:12:49;97671.31;;;8.64;90.66
81224;BME280;70698;44.402;18.522;2024-03-08T12:15:17;97661.44;;;8.50;91.73
81224;BME280;70698;44.402;18.522;2024-03-08T12:17:44;97659.63;;;8.51;84.91
81224;BME280;70698;44.402;18.522;2024-03-08T12:20:29;97651.44;;;8.46;84.60
81224;BME280;70698;44.402;18.522;2024-03-08T12:22:58;97651.94;;;8.91;82.94
81224;BME280;70698;44.402;18.522;2024-03-08T12:25:30;97654.56;;;8.91;86.13
81224;BME280;70698;44.402;18.522;2024-03-08T12:28:10;97648.78;;;8.80;85.06
81224;BME280;70698;44.402;18.522;2024-03-08T12:30:46;97646.63;;;8.75;84.68
81224;BME280;70698;44.402;18.522;2024-03-08T12:33:12;97645.41;;;9.03;87.08
81224;BME280;70698;44.402;18.522;2024-03-08T12:35:38;97638.91;;;9.40;81.11
81224;BME280;70698;44.402;18.522;2024-03-08T12:38:04;97636.28;;;9.56;82.58
81224;BME280;70698;44.402;18.522;2024-03-08T12:40:32;97626.91;;;9.62;78.12
81224;BME280;70698;44.402;18.522;2024-03-08T12:43:01;97626.44;;;9.50;82.76
81224;BME280;70698;44.402;18.522;2024-03-08T12:45:27;97636.25;;;9.32;82.31
81224;BME280;70698;44.402;18.522;2024-03-08T12:47:53;97625.63;;;9.49;81.11
81224;BME280;70698;44.402;18.522;2024-03-08T12:50:23;97618.91;;;9.55;82.46
81224;BME280;70698;44.402;18.522;2024-03-08T12:52:50;97619.06;;;9.45;84.08
81224;BME280;70698;44.402;18.522;2024-03-08T12:55:18;97624.75;;;9.00;83.98
81224;BME280;70698;44.402;18.522;2024-03-08T12:57:44;97621.47;;;8.98;86.76
81224;BME280;70698;44.402;18.522;2024-03-08T13:00:11;97616.75;;;9.42;87.52